createdAt,value
2018-10-18T00:01:36.924Z,101493.83
2018-10-18T00:04:08.002Z,101493.63
2018-10-18T00:06:38.014Z,101492.78
2018-10-18T00:09:10.398Z,101494.00
2018-10-18T00:11:39.768Z,101491.16
2018-10-18T00:14:09.327Z,101494.86
2018-10-18T00:16:38.838Z,101490.50
2018-10-18T00:19:08.572Z,101491.21
2018-10-18T00:21:38.707Z,101483.84
2018-10-18T00:24:08.982Z,101487.53
2018-10-18T00:26:38.135Z,101489.25
2018-10-18T00:29:08.460Z,101484.19
2018-10-18T00:31:37.492Z,101493.27
2018-10-18T00:34:06.682Z,101489.25
2018-10-18T00:36:36.313Z,101494.63
2018-10-18T00:39:08.052Z,101489.11
2018-10-18T00:41:37.917Z,101499.70
2018-10-18T00:44:08.326Z,101493.84
2018-10-18T00:46:38.112Z,101502.05
2018-10-18T00:49:08.035Z,101495.35
2018-10-18T00:51:38.496Z,101501.55
2018-10-18T00:54:08.824Z,101500.05
2018-10-18T00:56:38.169Z,101486.64
2018-10-18T00:59:07.885Z,101494.23
2018-10-18T01:01:38.052Z,101489.72
2018-10-18T01:04:07.258Z,101492.56
2018-10-18T01:06:37.376Z,101488.41
2018-10-18T01:09:10.242Z,101489.42
2018-10-18T01:11:39.763Z,101487.09
2018-10-18T01:14:10.101Z,101488.97
2018-10-18T01:16:40.902Z,101487.47
2018-10-18T01:19:10.891Z,101484.80
2018-10-18T01:21:40.987Z,101485.45
2018-10-18T01:24:10.535Z,101486.62
2018-10-18T01:26:39.467Z,101482.44
2018-10-18T01:29:09.608Z,101482.45
2018-10-18T01:31:38.546Z,101484.29
2018-10-18T01:34:09.302Z,101486.81
2018-10-18T01:36:39.013Z,101485.50
2018-10-18T01:39:08.748Z,101481.48
2018-10-18T01:41:37.657Z,101480.66
2018-10-18T01:44:07.168Z,101480.19
2018-10-18T01:46:36.528Z,101471.98
2018-10-18T01:49:05.662Z,101473.83
2018-10-18T01:51:34.780Z,101469.48
2018-10-18T01:54:04.958Z,101469.81
2018-10-18T01:56:33.936Z,101473.83
2018-10-18T01:59:03.701Z,101473.66
2018-10-18T02:01:33.490Z,101469.98
2018-10-18T02:04:03.322Z,101470.48
2018-10-18T02:06:32.275Z,101470.98
2018-10-18T02:09:02.145Z,101479.20
2018-10-18T02:11:31.787Z,101477.85
2018-10-18T02:14:01.556Z,101474.64
2018-10-18T02:16:30.872Z,101475.17
2018-10-18T02:19:00.503Z,101474.34
2018-10-18T02:21:29.608Z,101465.14
2018-10-18T02:23:58.956Z,101468.70
2018-10-18T02:26:28.147Z,101466.14
2018-10-18T02:28:58.145Z,101468.19
2018-10-18T02:31:28.581Z,101474.89
2018-10-18T02:33:57.845Z,101472.92
2018-10-18T02:36:27.360Z,101468.73
2018-10-18T02:38:57.643Z,101471.58
2018-10-18T02:41:26.672Z,101472.59
2018-10-18T02:43:58.952Z,101471.42
2018-10-18T02:46:28.867Z,101469.58
2018-10-18T02:48:58.571Z,101470.78
2018-10-18T02:51:27.935Z,101476.30
2018-10-18T02:53:57.347Z,101470.28
2018-10-18T02:56:28.041Z,101466.30
2018-10-18T02:58:57.067Z,101465.13
2018-10-18T03:01:27.987Z,101470.82
2018-10-18T03:03:56.878Z,101465.80
2018-10-18T03:06:26.622Z,101471.33
2018-10-18T03:08:56.220Z,101472.33
2018-10-18T03:11:26.987Z,101472.83
2018-10-18T03:13:56.590Z,101464.33
2018-10-18T03:16:26.862Z,101471.52
2018-10-18T03:18:56.673Z,101476.20
2018-10-18T03:21:25.827Z,101475.54
2018-10-18T03:23:55.836Z,101476.38
2018-10-18T03:26:26.201Z,101474.56
2018-10-18T03:28:56.632Z,101480.09
2018-10-18T03:31:25.852Z,101480.42
2018-10-18T03:33:54.804Z,101484.11
2018-10-18T03:36:24.495Z,101483.77
2018-10-18T03:38:53.482Z,101481.59
2018-10-18T03:41:23.350Z,101475.41
2018-10-18T03:43:53.134Z,101478.08
2018-10-18T03:46:22.736Z,101481.09
2018-10-18T03:48:51.793Z,101480.79
2018-10-18T03:51:22.499Z,101480.66
2018-10-18T03:53:51.349Z,101480.11
2018-10-18T03:56:21.020Z,101483.33
2018-10-18T03:58:50.661Z,101484.33
2018-10-18T04:01:20.609Z,101480.48
2018-10-18T04:03:49.829Z,101482.99
2018-10-18T04:06:20.101Z,101479.81
2018-10-18T04:08:49.567Z,101481.65
2018-10-18T04:11:18.963Z,101474.45
2018-10-18T04:13:48.429Z,101483.33
2018-10-18T04:16:17.313Z,101481.81
2018-10-18T04:18:46.563Z,101490.38
2018-10-18T04:21:15.781Z,101477.52
2018-10-18T04:23:44.618Z,101480.50
2018-10-18T04:26:14.223Z,101478.02
2018-10-18T04:28:43.699Z,101477.52
2018-10-18T04:31:13.511Z,101478.99
2018-10-18T04:33:43.478Z,101477.16
2018-10-18T04:36:13.962Z,101477.16
2018-10-18T04:38:42.958Z,101473.48
2018-10-18T04:41:13.319Z,101481.67
2018-10-18T04:43:44.161Z,101480.17
2018-10-18T04:46:14.174Z,101476.49
2018-10-18T04:48:43.332Z,101476.16
2018-10-18T04:51:15.770Z,101482.00
2018-10-18T04:53:45.523Z,101479.86
2018-10-18T04:56:15.286Z,101483.54
2018-10-18T04:58:45.037Z,101484.20
2018-10-18T05:01:15.931Z,101488.24
2018-10-18T05:03:46.344Z,101488.08
2018-10-18T05:06:16.024Z,101492.26
2018-10-18T05:08:45.967Z,101496.27
2018-10-18T05:11:15.690Z,101502.61
2018-10-18T05:13:45.423Z,101495.77
2018-10-18T05:16:14.725Z,101501.28
2018-10-18T05:18:43.633Z,101505.97
2018-10-18T05:21:13.418Z,101508.30
2018-10-18T05:23:43.158Z,101502.95
2018-10-18T05:26:14.021Z,101502.61
2018-10-18T05:28:44.523Z,101507.13
2018-10-18T05:31:13.939Z,101509.66
2018-10-18T05:33:43.990Z,101513.52
2018-10-18T05:36:13.393Z,101518.03
2018-10-18T05:38:42.599Z,101520.36
2018-10-18T05:41:13.101Z,101526.72
2018-10-18T05:43:43.379Z,101524.37
2018-10-18T05:46:12.367Z,101526.40
2018-10-18T05:48:43.370Z,101530.58
2018-10-18T05:51:13.046Z,101540.77
2018-10-18T05:53:42.785Z,101542.95
2018-10-18T05:56:12.178Z,101546.47
2018-10-18T05:58:41.317Z,101547.95
2018-10-18T06:01:10.938Z,101559.48
2018-10-18T06:03:40.049Z,101562.84
2018-10-18T06:06:09.383Z,101558.98
2018-10-18T06:08:39.194Z,101561.84
2018-10-18T06:11:32.175Z,101564.17
2018-10-18T06:14:02.976Z,101564.17
2018-10-18T06:16:32.383Z,101564.52
2018-10-18T06:19:02.313Z,101568.52
2018-10-18T06:21:31.355Z,101571.36
2018-10-18T06:24:00.460Z,101573.18
2018-10-18T06:26:29.661Z,101570.00
2018-10-18T06:28:59.177Z,101572.18
2018-10-18T06:31:29.032Z,101576.89
2018-10-18T06:33:58.458Z,101575.36
2018-10-18T06:36:27.572Z,101571.68
2018-10-18T06:38:56.630Z,101569.17
2018-10-18T06:41:25.610Z,101568.52
2018-10-18T06:43:54.682Z,101570.83
2018-10-18T06:46:24.124Z,101572.34
2018-10-18T06:48:54.159Z,101578.18
2018-10-18T06:51:27.063Z,101582.20
2018-10-18T06:53:56.457Z,101577.16
2018-10-18T06:56:26.210Z,101576.98
2018-10-18T06:58:56.215Z,101576.15
2018-10-18T07:01:26.083Z,101574.45
2018-10-18T07:03:55.070Z,101571.45
2018-10-18T07:06:24.469Z,101574.06
2018-10-18T07:08:54.169Z,101568.72
2018-10-18T07:11:23.989Z,101572.70
2018-10-18T07:13:54.286Z,101575.36
2018-10-18T07:16:23.579Z,101574.32
2018-10-18T07:18:52.928Z,101577.17
2018-10-18T07:21:22.019Z,101580.98
2018-10-18T07:23:53.386Z,101588.66
2018-10-18T07:26:22.468Z,101587.65
2018-10-18T07:28:51.897Z,101597.33
2018-10-18T07:31:21.396Z,101599.17
2018-10-18T07:33:51.412Z,101603.19
2018-10-18T07:36:20.669Z,101597.70
2018-10-18T07:38:49.465Z,101595.52
2018-10-18T07:41:18.564Z,101597.73
2018-10-18T07:43:47.492Z,101597.73
2018-10-18T07:46:16.552Z,101602.26
2018-10-18T07:48:45.780Z,101606.45
2018-10-18T07:51:14.774Z,101605.44
2018-10-18T07:53:44.144Z,101605.77
2018-10-18T07:56:13.514Z,101607.08
2018-10-18T07:58:42.498Z,101608.08
2018-10-18T08:01:12.297Z,101608.92
2018-10-18T08:03:41.390Z,101608.89
2018-10-18T08:06:11.060Z,101608.55
2018-10-18T08:08:40.560Z,101615.72
2018-10-18T08:11:09.980Z,101608.72
2018-10-18T08:13:39.953Z,101614.88
2018-10-18T08:16:09.100Z,101617.23
2018-10-18T08:18:38.544Z,101612.20
2018-10-18T08:21:07.680Z,101613.50
2018-10-18T08:23:36.928Z,101610.95
2018-10-18T08:26:06.223Z,101612.24
2018-10-18T08:28:35.765Z,101609.34
2018-10-18T08:31:05.158Z,101604.77
2018-10-18T08:33:34.677Z,101605.22
2018-10-18T08:36:03.919Z,101598.30
2018-10-18T08:38:34.081Z,101599.25
2018-10-18T08:41:03.317Z,101604.89
2018-10-18T08:43:33.763Z,101602.53
2018-10-18T08:46:03.227Z,101598.34
2018-10-18T08:48:32.767Z,101605.22
2018-10-18T08:51:02.889Z,101602.92
2018-10-18T08:53:32.059Z,101613.27
2018-10-18T08:56:02.020Z,101603.81
2018-10-18T08:58:31.396Z,101606.69
2018-10-18T09:01:00.526Z,101605.00
2018-10-18T09:03:30.069Z,101604.59
2018-10-18T09:06:00.230Z,101608.85
2018-10-18T09:08:29.240Z,101608.72
2018-10-18T09:10:58.482Z,101610.14
2018-10-18T09:13:27.462Z,101610.72
2018-10-18T09:15:57.179Z,101607.05
2018-10-18T09:18:26.047Z,101612.56
2018-10-18T09:20:55.161Z,101617.70
2018-10-18T09:23:24.841Z,101612.93
2018-10-18T09:25:54.484Z,101614.67
2018-10-18T09:28:23.884Z,101610.39
2018-10-18T09:30:53.863Z,101608.38
2018-10-18T09:33:23.137Z,101612.97
2018-10-18T09:35:52.725Z,101603.46
2018-10-18T09:38:22.255Z,101606.05
2018-10-18T09:40:51.384Z,101612.12
2018-10-18T09:43:20.711Z,101610.00
2018-10-18T09:45:49.914Z,101604.76
2018-10-18T09:48:18.953Z,101606.31
2018-10-18T09:50:48.614Z,101610.88
2018-10-18T09:53:18.378Z,101610.34
2018-10-18T09:55:47.565Z,101608.55
2018-10-18T09:58:16.807Z,101606.75
2018-10-18T10:00:51.063Z,101610.78
2018-10-18T10:03:20.755Z,101605.16
2018-10-18T10:05:51.024Z,101615.15
2018-10-18T10:08:20.474Z,101613.75
2018-10-18T10:10:50.299Z,101613.34
2018-10-18T10:13:19.870Z,101614.18
2018-10-18T10:15:49.349Z,101625.25
2018-10-18T10:18:18.640Z,101628.02
2018-10-18T10:20:47.703Z,101618.33
2018-10-18T10:23:17.927Z,101624.73
2018-10-18T10:25:47.645Z,101628.72
2018-10-18T10:28:17.447Z,101625.46
2018-10-18T10:30:48.175Z,101630.28
2018-10-18T10:33:17.873Z,101634.56
2018-10-18T10:35:47.042Z,101632.66
2018-10-18T10:38:16.059Z,101632.44
2018-10-18T10:40:45.176Z,101640.06
2018-10-18T10:43:15.327Z,101641.69
2018-10-18T10:45:44.605Z,101648.73
2018-10-18T10:48:14.159Z,101647.40
2018-10-18T10:50:44.020Z,101648.52
2018-10-18T10:53:13.390Z,101652.57
2018-10-18T10:55:42.715Z,101659.34
2018-10-18T10:58:13.120Z,101654.20
2018-10-18T11:01:18.909Z,101657.34
2018-10-18T11:03:48.653Z,101655.47
2018-10-18T11:06:17.996Z,101660.58
2018-10-18T11:08:48.719Z,101663.02
2018-10-18T11:11:18.610Z,101660.91
2018-10-18T11:13:47.799Z,101653.98
2018-10-18T11:16:16.996Z,101665.14
2018-10-18T11:18:46.526Z,101659.62
2018-10-18T11:21:17.186Z,101653.80
2018-10-18T11:23:46.782Z,101652.69
2018-10-18T11:26:15.957Z,101652.30
2018-10-18T11:28:47.296Z,101649.28
2018-10-18T11:31:16.439Z,101656.11
2018-10-18T11:33:45.846Z,101656.52
2018-10-18T11:36:15.100Z,101651.21
2018-10-18T11:38:44.452Z,101658.58
2018-10-18T11:41:13.561Z,101659.88
2018-10-18T11:43:42.676Z,101656.59
2018-10-18T11:46:12.353Z,101654.82
2018-10-18T11:48:41.372Z,101648.08
2018-10-18T11:51:11.332Z,101656.11
2018-10-18T11:53:40.517Z,101648.44
2018-10-18T11:56:10.828Z,101650.44
2018-10-18T11:58:40.167Z,101642.09
2018-10-18T12:01:09.430Z,101638.38
2018-10-18T12:03:39.104Z,101639.78
2018-10-18T12:06:09.418Z,101631.79
2018-10-18T12:08:39.271Z,101635.42
2018-10-18T12:11:08.658Z,101625.05
2018-10-18T12:13:38.737Z,101631.47
2018-10-18T12:16:09.160Z,101626.95
2018-10-18T12:18:39.279Z,101629.52
2018-10-18T12:21:09.218Z,101638.31
2018-10-18T12:23:38.457Z,101642.48
2018-10-18T12:26:08.484Z,101646.77
2018-10-18T12:28:40.561Z,101639.09
2018-10-18T12:31:09.580Z,101643.29
2018-10-18T12:33:39.025Z,101651.05
2018-10-18T12:36:08.872Z,101650.16
2018-10-18T12:38:38.368Z,101655.19
2018-10-18T12:41:07.529Z,101661.61
2018-10-18T12:43:37.264Z,101661.42
2018-10-18T12:46:07.114Z,101658.48
2018-10-18T12:48:36.411Z,101656.38
2018-10-18T12:51:05.403Z,101655.09
2018-10-18T12:53:34.471Z,101656.52
2018-10-18T12:56:03.727Z,101658.36
2018-10-18T12:58:32.844Z,101663.29
2018-10-18T13:01:02.207Z,101659.04
2018-10-18T13:03:31.454Z,101658.32
2018-10-18T13:06:00.517Z,101665.27
2018-10-18T13:08:29.942Z,101665.48
2018-10-18T13:10:59.696Z,101666.20
2018-10-18T13:13:29.107Z,101659.70
2018-10-18T13:15:59.093Z,101661.77
2018-10-18T13:18:28.975Z,101666.17
2018-10-18T13:20:59.330Z,101668.23
2018-10-18T13:23:28.732Z,101669.33
2018-10-18T13:25:58.537Z,101663.47
2018-10-18T13:28:29.009Z,101670.05
2018-10-18T13:30:58.054Z,101671.79
2018-10-18T13:33:27.591Z,101667.28
2018-10-18T13:35:57.596Z,101674.33
2018-10-18T13:38:28.044Z,101667.78
2018-10-18T13:40:57.441Z,101673.70
2018-10-18T13:43:26.487Z,101677.52
2018-10-18T13:45:56.226Z,101674.39
2018-10-18T13:48:25.308Z,101674.06
2018-10-18T13:50:54.302Z,101664.14
2018-10-18T13:53:23.760Z,101669.52
2018-10-18T13:55:53.459Z,101674.39
2018-10-18T13:58:23.051Z,101674.90
2018-10-18T14:00:52.751Z,101681.30
2018-10-18T14:03:22.683Z,101676.60
2018-10-18T14:05:52.283Z,101674.63
2018-10-18T14:08:21.641Z,101671.41
2018-10-18T14:10:51.473Z,101678.13
2018-10-18T14:13:21.127Z,101679.68
2018-10-18T14:15:52.841Z,101679.86
2018-10-18T14:18:24.113Z,101679.36
2018-10-18T14:20:53.568Z,101683.75
2018-10-18T14:23:24.107Z,101677.09
2018-10-18T14:25:54.048Z,101674.25
2018-10-18T14:28:23.321Z,101675.08
2018-10-18T14:30:54.492Z,101682.49
2018-10-18T14:33:26.392Z,101683.33
2018-10-18T14:35:56.665Z,101682.16
2018-10-18T14:38:27.441Z,101682.16
2018-10-18T14:41:00.941Z,101678.45
2018-10-18T14:43:31.307Z,101676.78
2018-10-18T14:46:01.530Z,101677.50
2018-10-18T14:48:31.077Z,101680.55
2018-10-18T14:51:01.373Z,101679.02
2018-10-18T14:53:31.525Z,101679.86
2018-10-18T14:56:01.919Z,101675.83
2018-10-18T14:58:32.172Z,101675.83
2018-10-18T15:01:02.382Z,101674.48
2018-10-18T15:03:32.994Z,101675.44
2018-10-18T15:06:02.686Z,101679.17
2018-10-18T15:08:31.799Z,101686.91
2018-10-18T15:11:01.265Z,101686.91
2018-10-18T15:13:31.640Z,101685.06
2018-10-18T15:16:00.762Z,101684.91
2018-10-18T15:18:30.969Z,101689.95
2018-10-18T15:21:00.112Z,101689.59
2018-10-18T15:23:29.112Z,101692.97
2018-10-18T15:25:58.663Z,101691.30
2018-10-18T15:28:27.829Z,101688.28
2018-10-18T15:30:57.787Z,101687.92
2018-10-18T15:33:27.999Z,101688.28
2018-10-18T15:35:57.809Z,101682.78
2018-10-18T15:38:27.831Z,101686.81
2018-10-18T15:40:58.042Z,101691.36
2018-10-18T15:43:27.709Z,101690.70
2018-10-18T15:45:57.704Z,101697.59
2018-10-18T15:48:27.722Z,101692.55
2018-10-18T15:50:57.202Z,101697.09
2018-10-18T15:53:26.505Z,101695.74
2018-10-18T15:55:56.055Z,101694.40
2018-10-18T15:58:25.895Z,101701.45
2018-10-18T16:00:55.133Z,101705.13
2018-10-18T16:03:25.081Z,101704.08
2018-10-18T16:05:55.545Z,101701.72
2018-10-18T16:08:24.727Z,101702.70
2018-10-18T16:10:54.656Z,101703.67
2018-10-18T16:13:24.364Z,101701.52
2018-10-18T16:15:53.534Z,101707.41
2018-10-18T16:18:23.320Z,101714.30
2018-10-18T16:20:52.691Z,101718.00
2018-10-18T16:23:22.822Z,101718.76
2018-10-18T16:25:52.601Z,101717.44
2018-10-18T16:28:22.561Z,101720.63
2018-10-18T16:30:52.326Z,101726.52
2018-10-18T16:33:21.499Z,101724.55
2018-10-18T16:35:50.729Z,101729.59
2018-10-18T16:38:20.144Z,101733.62
2018-10-18T16:40:49.463Z,101741.36
2018-10-18T16:43:20.303Z,101740.85
2018-10-18T16:45:49.549Z,101746.41
2018-10-18T16:48:19.039Z,101750.28
2018-10-18T16:50:47.866Z,101753.17
2018-10-18T16:53:18.468Z,101754.02
2018-10-18T16:55:47.557Z,101758.17
2018-10-18T16:58:17.440Z,101760.08
2018-10-18T17:00:48.432Z,101766.64
2018-10-18T17:03:17.714Z,101767.86
2018-10-18T17:05:46.910Z,101767.32
2018-10-18T17:08:16.752Z,101766.02
2018-10-18T17:10:46.156Z,101766.02
2018-10-18T17:13:16.048Z,101765.03
2018-10-18T17:15:45.303Z,101769.45
2018-10-18T17:18:14.496Z,101772.47
2018-10-18T17:20:43.611Z,101779.36
2018-10-18T17:23:12.655Z,101777.00
2018-10-18T17:25:41.869Z,101781.20
2018-10-18T17:28:12.016Z,101785.23
2018-10-18T17:30:41.359Z,101784.58
2018-10-18T17:33:10.689Z,101787.92
2018-10-18T17:35:39.884Z,101792.64
2018-10-18T17:38:09.242Z,101791.62
2018-10-18T17:40:38.887Z,101802.42
2018-10-18T17:43:08.507Z,101803.43
2018-10-18T17:45:38.183Z,101804.48
2018-10-18T17:48:07.517Z,101803.94
2018-10-18T17:50:36.550Z,101803.43
2018-10-18T17:53:05.825Z,101806.47
2018-10-18T17:55:35.456Z,101805.16
2018-10-18T17:58:04.801Z,101808.86
2018-10-18T18:00:34.161Z,101804.83
2018-10-18T18:03:04.298Z,101808.52
2018-10-18T18:05:34.335Z,101814.23
2018-10-18T18:08:03.249Z,101817.94
2018-10-18T18:10:32.099Z,101819.45
2018-10-18T18:13:01.936Z,101818.11
2018-10-18T18:15:32.360Z,101830.36
2018-10-18T18:18:01.635Z,101833.72
2018-10-18T18:20:30.931Z,101824.98
2018-10-18T18:23:00.629Z,101826.33
2018-10-18T18:25:29.870Z,101826.34
2018-10-18T18:27:59.614Z,101832.42
2018-10-18T18:30:30.600Z,101840.31
2018-10-18T18:33:01.790Z,101836.95
2018-10-18T18:35:31.412Z,101850.22
2018-10-18T18:38:01.278Z,101850.39
2018-10-18T18:40:30.993Z,101853.92
2018-10-18T18:43:00.553Z,101860.30
2018-10-18T18:45:34.609Z,101857.31
2018-10-18T18:48:05.407Z,101864.16
2018-10-18T18:50:34.245Z,101858.61
2018-10-18T18:53:03.664Z,101867.35
2018-10-18T18:55:33.739Z,101873.39
2018-10-18T18:58:03.304Z,101873.05
2018-10-18T19:00:33.928Z,101871.42
2018-10-18T19:03:05.242Z,101886.32
2018-10-18T19:05:36.048Z,101879.81
2018-10-18T19:08:05.569Z,101879.14
2018-10-18T19:10:35.495Z,101878.14
2018-10-18T19:13:05.860Z,101880.83
2018-10-18T19:15:36.166Z,101880.14
2018-10-18T19:18:06.426Z,101888.25
2018-10-18T19:20:39.741Z,101890.43
2018-10-18T19:23:10.405Z,101891.77
2018-10-18T19:25:40.758Z,101896.30
2018-10-18T19:28:10.078Z,101893.28
2018-10-18T19:30:39.594Z,101897.34
2018-10-18T19:33:08.809Z,101897.52
2018-10-18T19:35:37.713Z,101891.30
2018-10-18T19:38:07.307Z,101896.00
2018-10-18T19:40:37.377Z,101898.36
2018-10-18T19:43:06.323Z,101899.70
2018-10-18T19:45:35.950Z,101896.48
2018-10-18T19:48:06.842Z,101905.06
2018-10-18T19:50:36.709Z,101902.22
2018-10-18T19:53:06.054Z,101903.39
2018-10-18T19:55:35.630Z,101898.86
2018-10-18T19:58:05.874Z,101912.15
2018-10-18T20:00:35.098Z,101907.08
2018-10-18T20:03:05.895Z,101903.76
2018-10-18T20:05:36.138Z,101906.75
2018-10-18T20:08:05.226Z,101902.08
2018-10-18T20:10:34.343Z,101910.27
2018-10-18T20:13:04.188Z,101915.17
2018-10-18T20:15:35.456Z,101912.66
2018-10-18T20:18:05.413Z,101915.84
2018-10-18T20:20:34.503Z,101918.19
2018-10-18T20:23:03.468Z,101916.84
2018-10-18T20:25:33.120Z,101922.22
2018-10-18T20:28:04.070Z,101920.53
2018-10-18T20:30:33.210Z,101919.20
2018-10-18T20:33:02.266Z,101920.23
2018-10-18T20:35:34.053Z,101918.89
2018-10-18T20:38:02.918Z,101919.20
2018-10-18T20:40:32.125Z,101920.53
2018-10-18T20:43:00.883Z,101925.59
2018-10-18T20:45:36.593Z,101924.26
2018-10-18T20:48:05.670Z,101927.11
2018-10-18T20:50:34.686Z,101934.33
2018-10-18T20:53:04.331Z,101930.62
2018-10-18T20:55:34.115Z,101927.45
2018-10-18T20:58:03.119Z,101938.18
2018-10-18T21:00:32.561Z,101939.66
2018-10-18T21:03:02.627Z,101932.28
2018-10-18T21:05:32.649Z,101934.66
2018-10-18T21:08:01.837Z,101941.38
2018-10-18T21:10:30.658Z,101937.34
2018-10-18T21:13:00.359Z,101936.16
2018-10-18T21:15:29.647Z,101944.39
2018-10-18T21:18:00.094Z,101945.73
2018-10-18T21:20:29.204Z,101947.74
2018-10-18T21:22:59.037Z,101942.56
2018-10-18T21:25:30.151Z,101958.48
2018-10-18T21:28:00.042Z,101957.13
2018-10-18T21:30:30.519Z,101959.52
2018-10-18T21:33:00.003Z,101961.86
2018-10-18T21:35:31.865Z,101957.19
2018-10-18T21:38:01.234Z,101956.17
2018-10-18T21:40:30.829Z,101959.70
2018-10-18T21:43:02.219Z,101961.54
2018-10-18T21:45:32.771Z,101957.67
2018-10-18T21:48:01.921Z,101954.16
2018-10-18T21:50:32.916Z,101958.34
2018-10-18T21:53:02.250Z,101958.54
2018-10-18T21:55:31.773Z,101963.41
2018-10-18T21:58:01.884Z,101961.55
2018-10-18T22:00:36.411Z,101964.41
2018-10-18T22:03:05.743Z,101962.22
2018-10-18T22:05:35.007Z,101961.72
2018-10-18T22:08:04.962Z,101963.90
2018-10-18T22:10:33.870Z,101962.72
2018-10-18T22:13:02.968Z,101968.45
2018-10-18T22:15:31.863Z,101967.27
2018-10-18T22:18:00.751Z,101973.30
2018-10-18T22:20:30.288Z,101975.34
2018-10-18T22:23:00.363Z,101974.66
2018-10-18T22:25:30.252Z,101972.31
2018-10-18T22:27:59.752Z,101976.00
2018-10-18T22:30:29.345Z,101968.28
2018-10-18T22:32:58.412Z,101972.97
2018-10-18T22:35:27.567Z,101971.64
2018-10-18T22:37:56.489Z,101968.96
2018-10-18T22:40:25.715Z,101973.31
2018-10-18T22:42:56.629Z,101969.29
2018-10-18T22:45:26.505Z,101979.37
2018-10-18T22:47:55.591Z,101979.03
2018-10-18T22:50:24.662Z,101986.73
2018-10-18T22:52:53.738Z,101980.55
2018-10-18T22:55:23.395Z,101977.67
2018-10-18T22:57:52.935Z,101980.03
2018-10-18T23:00:22.093Z,101986.92
2018-10-18T23:02:51.533Z,101980.86
2018-10-18T23:05:21.812Z,101984.55
2018-10-18T23:07:51.373Z,101982.53
2018-10-18T23:10:20.358Z,101981.39
2018-10-18T23:12:49.476Z,101986.07
2018-10-18T23:15:18.513Z,101987.39
2018-10-18T23:17:48.251Z,101987.39
2018-10-18T23:20:17.655Z,101991.77
2018-10-18T23:22:47.529Z,101991.24
2018-10-18T23:25:17.067Z,101996.27
2018-10-18T23:27:46.632Z,101989.25
2018-10-18T23:30:17.057Z,101987.05
2018-10-18T23:32:46.242Z,101995.44
2018-10-18T23:35:15.719Z,101997.80
2018-10-18T23:37:45.347Z,101995.44
2018-10-18T23:40:15.376Z,101994.25
2018-10-18T23:42:45.308Z,101989.58
2018-10-18T23:45:15.670Z,101978.36
2018-10-18T23:47:45.093Z,101984.53
2018-10-18T23:50:14.127Z,101982.67
2018-10-18T23:52:43.134Z,101981.01
2018-10-18T23:55:12.214Z,101980.32
2018-10-18T23:57:41.462Z,101987.69
